This demonstration page uses our WeatherBlox Daily Observations layout. Learn more.

41.55636, -103.73856

Hourly Observations for March 22, 2019

Temp ( °F °C ) Dew Point ( °F °C ) Humidity (%) Winds ( mph kmh ) Pressure ( in mb ) Visibility ( mi km ) Precip ( " mm )
1:58 am 01:58 Partly Cloudy 43 6 28 -2.1 56 56 SSE 9 15 30.1 1019 10 16.0934 0 0
2:58 am 02:58 Mostly Cloudy 42 5.3 28 -2.4 58 58 SSE 12 19 30.09 1019 10 16.0934 0 0
4:58 am 04:58 Mostly Cloudy 41 5.2 25 -3.8 53 53 S 15 24 30.07 1018 10 16.0934 0 0
5:58 am 05:58 Clear 40 4.4 25 -3.7 56 56 S 15 24 30.06 1018 10 16.0934 0 0
6:58 am 06:58 Clear 36 2.4 26 -3.4 66 66 S 10 17 30.05 1018 10 16.0934 0 0
7:58 am 07:58 Mostly Clear 35 1.6 26 -3.1 71 71 SE 9 15 30.03 1017 10 16.0934 0 0
8:58 am 08:58 Mostly Cloudy 35 1.9 26 -3.5 68 68 SE 6 9 29.99 1016 10 16.0934 0 0
9:58 am 09:58 Mostly Cloudy 35 1.6 27 -3 72 72 SE 7 11 29.98 1015 10 16.0934 0 0
10:58 am 10:58 Partly Cloudy 34 1.3 26 -3.2 72 72 SE 5 7 30.01 1016 10 16.0934 0 0
11:58 am 11:58 Mostly Cloudy 35 1.5 27 -3 72 72 SE 5 7 30.03 1017 10 16.0934 0 0
12:58 pm 12:58 Mostly Cloudy 34 1.3 26 -3.1 73 73 SE 5 7 30.04 1017 10 16.0934 0 0
1:58 pm 13:58 Mostly Sunny 35 1.6 28 -2.4 75 75 SE 6 9 30.04 1017 10 16.0934 0 0
2:58 pm 14:58 Sunny 38 3.2 29 -1.6 71 71 ESE 7 11 30.04 1017 10 16.0934 0 0
3:58 pm 15:58 Mostly Sunny 38 3.6 31 -0.7 74 74 ESE 6 9 30.01 1016 10 16.0934 0 0
4:58 pm 16:58 Mostly Cloudy with Light Showers 40 4.7 32 0.2 73 73 SE 7 11 30 1016 10 16.0934 0 0
5:58 pm 17:58 Sunny with Light Showers 41 5.2 33 0.4 71 71 S 9 15 30 1016 10 16.0934 0 0
6:58 pm 18:58 Mostly Cloudy with Light Rain 42 5.8 36 2 77 77 S 10 17 29.99 1016 10 16.0934 0 0
7:58 pm 19:58 Cloudy with Light Rain 41 5 37 2.7 85 85 SSE 10 17 30 1016 10 16.0934 0.01 0.254
8:58 pm 20:58 Mostly Cloudy with Light Showers 41 4.8 39 3.8 93 93 SE 10 17 29.99 1016 6 9.65604 0.01 0.254
9:58 pm 21:58 Cloudy 42 5.3 39 4.1 92 92 E 3 6 29.97 1015 9 14.48406 0 0
10:58 pm 22:58 Mostly Cloudy with Mist and Fog 41 5.2 40 4.2 93 93 ENE 8 13 29.97 1015 4 6.43736 0 0
11:58 pm 23:58 Mostly Cloudy 42 5.3 39 3.8 90 90 NE 7 11 29.97 1015 10 16.0934 0 0

Powered by AerisWeather